Telford Dawley, United Kingdom
Current Conditions -  °F | °C
As of 6:50 PM on Monday 22 Dec 2014 (Local Time) from EGOS Reporting Station
Broken Clouds Broken Clouds  
Wind Chill: 52°   Ceiling: 1700
Heat Index: 52°   Visibility: 6mi
Dew Point: 48°   Wind: 26mph
Humidity: 88%   Direction: 240°WSW
Pressure: 29.88"   Gusts: 38mph
Location:  52.67°N, 2.47°W
Report Text: EGOS 221850Z AUTO 24023G33KT 9999 BKN017/// 11/09 Q1012 RERA
Loading
Personal Weather Stations






























Interactive Weather Map New forecast layout! Learn more

10-Day Weather Forecast

Advertisements
Track Severe Weather on mobile